Airfield :
LOGIN :

Register | Disclaimer

   EN    FR    IT 

 










Legend :    VFR   Marginal VFR   IFR   Intensive IFR   Very Intensive IFR
Visi :
Ceiling :
>= 8 km
>= 3000ft
5 to 8 km
1000 to 3000 ft
1500m to 5 km
500 to 1000 ft
800 to 1500m
200 to 500 ft
< 800m
< 200 ft
Symbols :   Thunderstorms  Fog  Heavy snow  Heavy precipitations  Wind > 20 kt
SIGMETs :     Misc.  Thunderstorms  Icing  Turbulence  Mountain Waves  Volcanic Ashes







- Airport Elevation : 13 ft
- IATA code : GOA


LIMJ - Genoa Cristoforo Colombo

CURRENT METAR :
  • 250020Z 03004KT 360V110 CAVOK 17/15 Q1018

EXPIRED METARs :
  • 242350Z 03005KT 010V110 CAVOK 17/15 Q1019
  • 242320Z 03003KT 010V130 CAVOK 18/15 Q1019
  • 242250Z 02005KT CAVOK 18/15 Q1019
  • 242220Z 03005KT 9999 SCT026 18/16 Q1019
  • 242150Z 03004KT 9999 SCT015 SCT026 19/16 Q1019

TAF TAF LIMJ
Valid from the 25 at 00:00 until the 26 at 00:00 UTC


242300Z 2500/2524 VRB05KT 9999 SCT025
No reported NOTAMs for that airfield.
1 SIGMET reported for the Milano FIR (LIMM) :
 
Embedded thunderstorms
LIMM SIGMET 1 VALID 250040/250240 LIMM
LIMM MILANO FIR EMBD TS FCST WI N4419 E01330 - N4515 E01258 - N4513 E01219 - N4446 E01219 - N4410 E01226 - N4327 E01409 - N4328 E01431 - N4419 E01330 TOP BLW FL180 STNR NC=



MET'MAP, your aeronautical weather chart ! - Copyright ORBIFLY December 2007 - Disclaimer

ORBIFLY MET'MAP TEAM :

Programming & Development : Alexandra Zaïnal
Concept & Development : Baudouin d'Aumeries
Co-Development & Prog : Marc-Olivier Méhu
Technical & hardware support : Manuel Goepfert

Contact : metmap@orbifly.com




SOURCES & CREDITS :

   NOAA